sensor_id;sensor_type;location;lat;lon;timestamp;P1;durP1;ratioP1;P2;durP2;ratioP2
34920;SDS011;21128;50.016;20.002;2022-08-02T00:01:24;17.07;;;11.33;;
34920;SDS011;21128;50.016;20.002;2022-08-02T00:03:51;19.23;;;11.40;;
34920;SDS011;21128;50.016;20.002;2022-08-02T00:06:17;12.87;;;11.10;;
34920;SDS011;21128;50.016;20.002;2022-08-02T00:08:51;17.43;;;11.90;;
34920;SDS011;21128;50.016;20.002;2022-08-02T00:11:19;15.57;;;11.33;;
34920;SDS011;21128;50.016;20.002;2022-08-02T00:13:45;14.47;;;11.07;;
34920;SDS011;21128;50.016;20.002;2022-08-02T00:16:12;12.53;;;10.65;;
34920;SDS011;21128;50.016;20.002;2022-08-02T00:18:39;19.97;;;11.00;;
34920;SDS011;21128;50.016;20.002;2022-08-02T00:21:07;14.57;;;10.77;;
34920;SDS011;21128;50.016;20.002;2022-08-02T00:23:33;15.73;;;10.83;;
34920;SDS011;21128;50.016;20.002;2022-08-02T00:26:06;14.33;;;11.60;;
34920;SDS011;21128;50.016;20.002;2022-08-02T00:28:33;13.67;;;10.87;;
34920;SDS011;21128;50.016;20.002;2022-08-02T00:31:00;15.10;;;10.40;;
34920;SDS011;21128;50.016;20.002;2022-08-02T00:33:27;12.18;;;10.40;;
34920;SDS011;21128;50.016;20.002;2022-08-02T00:35:54;14.13;;;10.17;;
34920;SDS011;21128;50.016;20.002;2022-08-02T00:38:20;12.20;;;10.40;;
34920;SDS011;21128;50.016;20.002;2022-08-02T00:40:53;13.60;;;10.07;;
34920;SDS011;21128;50.016;20.002;2022-08-02T00:43:21;14.60;;;9.53;;
34920;SDS011;21128;50.016;20.002;2022-08-02T00:45:48;13.50;;;10.65;;
34920;SDS011;21128;50.016;20.002;2022-08-02T00:48:14;13.40;;;11.10;;
34920;SDS011;21128;50.016;20.002;2022-08-02T00:51:01;17.23;;;10.77;;
34920;SDS011;21128;50.016;20.002;2022-08-02T00:53:28;18.33;;;10.60;;
34920;SDS011;21128;50.016;20.002;2022-08-02T00:55:56;21.37;;;11.63;;
34920;SDS011;21128;50.016;20.002;2022-08-02T00:58:23;13.03;;;9.80;;
34920;SDS011;21128;50.016;20.002;2022-08-02T01:00:50;16.75;;;10.45;;
34920;SDS011;21128;50.016;20.002;2022-08-02T01:03:23;14.67;;;11.10;;
34920;SDS011;21128;50.016;20.002;2022-08-02T01:05:50;13.28;;;10.78;;
34920;SDS011;21128;50.016;20.002;2022-08-02T01:08:17;13.87;;;10.87;;
34920;SDS011;21128;50.016;20.002;2022-08-02T01:10:44;11.33;;;9.77;;
34920;SDS011;21128;50.016;20.002;2022-08-02T01:13:11;15.80;;;11.50;;
34920;SDS011;21128;50.016;20.002;2022-08-02T01:15:39;16.10;;;10.27;;
34920;SDS011;21128;50.016;20.002;2022-08-02T01:18:26;17.47;;;11.07;;
34920;SDS011;21128;50.016;20.002;2022-08-02T01:21:04;13.93;;;10.87;;
34920;SDS011;21128;50.016;20.002;2022-08-02T01:32:16;16.43;;;12.40;;
34920;SDS011;21128;50.016;20.002;2022-08-02T01:34:50;17.17;;;11.37;;
34920;SDS011;21128;50.016;20.002;2022-08-02T01:39:54;14.80;;;11.27;;
34920;SDS011;21128;50.016;20.002;2022-08-02T01:42:34;16.47;;;11.27;;
34920;SDS011;21128;50.016;20.002;2022-08-02T01:45:03;17.30;;;11.83;;
34920;SDS011;21128;50.016;20.002;2022-08-02T01:47:34;13.47;;;11.10;;
34920;SDS011;21128;50.016;20.002;2022-08-02T01:50:12;13.93;;;11.17;;
34920;SDS011;21128;50.016;20.002;2022-08-02T01:52:48;15.47;;;11.43;;
34920;SDS011;21128;50.016;20.002;2022-08-02T01:55:21;13.93;;;10.73;;
34920;SDS011;21128;50.016;20.002;2022-08-02T01:57:54;18.10;;;11.47;;
34920;SDS011;21128;50.016;20.002;2022-08-02T02:00:24;18.43;;;11.87;;
34920;SDS011;21128;50.016;20.002;2022-08-02T02:02:54;16.87;;;10.73;;
34920;SDS011;21128;50.016;20.002;2022-08-02T02:05:24;14.37;;;11.77;;
34920;SDS011;21128;50.016;20.002;2022-08-02T02:07:54;17.13;;;11.77;;
34920;SDS011;21128;50.016;20.002;2022-08-02T02:10:31;14.07;;;11.83;;
34920;SDS011;21128;50.016;20.002;2022-08-02T02:13:01;13.17;;;11.73;;
34920;SDS011;21128;50.016;20.002;2022-08-02T02:15:30;15.47;;;12.90;;
34920;SDS011;21128;50.016;20.002;2022-08-02T02:17:58;14.93;;;12.13;;
34920;SDS011;21128;50.016;20.002;2022-08-02T02:20:27;18.63;;;12.87;;
34920;SDS011;21128;50.016;20.002;2022-08-02T02:22:54;13.45;;;11.25;;
34920;SDS011;21128;50.016;20.002;2022-08-02T02:25:28;15.15;;;12.45;;
34920;SDS011;21128;50.016;20.002;2022-08-02T02:28:06;16.97;;;12.68;;
34920;SDS011;21128;50.016;20.002;2022-08-02T02:30:47;14.23;;;12.80;;
34920;SDS011;21128;50.016;20.002;2022-08-02T02:33:19;18.07;;;14.17;;
34920;SDS011;21128;50.016;20.002;2022-08-02T02:35:49;17.73;;;13.93;;
34920;SDS011;21128;50.016;20.002;2022-08-02T02:38:19;17.03;;;13.10;;
34920;SDS011;21128;50.016;20.002;2022-08-02T02:40:47;18.40;;;13.40;;
34920;SDS011;21128;50.016;20.002;2022-08-02T02:43:21;13.90;;;11.63;;
34920;SDS011;21128;50.016;20.002;2022-08-02T02:45:53;17.47;;;13.43;;
34920;SDS011;21128;50.016;20.002;2022-08-02T02:48:22;22.23;;;13.77;;
34920;SDS011;21128;50.016;20.002;2022-08-02T02:50:57;16.67;;;13.67;;
34920;SDS011;21128;50.016;20.002;2022-08-02T02:53:25;22.17;;;15.17;;
34920;SDS011;21128;50.016;20.002;2022-08-02T02:55:54;15.63;;;13.70;;
34920;SDS011;21128;50.016;20.002;2022-08-02T02:58:22;24.60;;;14.60;;
34920;SDS011;21128;50.016;20.002;2022-08-02T03:00:50;18.33;;;13.43;;
34920;SDS011;21128;50.016;20.002;2022-08-02T03:03:36;15.77;;;13.27;;
34920;SDS011;21128;50.016;20.002;2022-08-02T03:06:04;20.37;;;13.93;;
34920;SDS011;21128;50.016;20.002;2022-08-02T03:08:31;16.02;;;13.10;;
34920;SDS011;21128;50.016;20.002;2022-08-02T03:10:57;18.23;;;12.90;;
34920;SDS011;21128;50.016;20.002;2022-08-02T03:13:25;18.60;;;13.63;;
34920;SDS011;21128;50.016;20.002;2022-08-02T03:15:52;16.63;;;14.00;;
34920;SDS011;21128;50.016;20.002;2022-08-02T03:18:29;23.25;;;13.80;;
34920;SDS011;21128;50.016;20.002;2022-08-02T03:20:59;24.40;;;14.70;;
34920;SDS011;21128;50.016;20.002;2022-08-02T03:23:28;21.80;;;14.25;;
34920;SDS011;21128;50.016;20.002;2022-08-02T03:26:02;21.90;;;14.60;;
34920;SDS011;21128;50.016;20.002;2022-08-02T03:28:36;19.80;;;15.57;;
34920;SDS011;21128;50.016;20.002;2022-08-02T03:31:02;32.00;;;16.33;;
34920;SDS011;21128;50.016;20.002;2022-08-02T03:33:29;22.15;;;16.23;;
34920;SDS011;21128;50.016;20.002;2022-08-02T03:35:59;17.70;;;15.37;;
34920;SDS011;21128;50.016;20.002;2022-08-02T03:38:31;21.87;;;17.23;;
34920;SDS011;21128;50.016;20.002;2022-08-02T03:41:00;25.37;;;18.37;;
34920;SDS011;21128;50.016;20.002;2022-08-02T03:43:29;30.75;;;19.75;;
34920;SDS011;21128;50.016;20.002;2022-08-02T03:45:56;42.33;;;20.97;;
34920;SDS011;21128;50.016;20.002;2022-08-02T03:48:26;34.67;;;21.70;;
34920;SDS011;21128;50.016;20.002;2022-08-02T03:51:07;38.77;;;22.60;;
34920;SDS011;21128;50.016;20.002;2022-08-02T03:53:34;35.57;;;22.27;;
34920;SDS011;21128;50.016;20.002;2022-08-02T03:56:02;39.10;;;24.00;;
34920;SDS011;21128;50.016;20.002;2022-08-02T03:58:30;37.43;;;24.00;;
34920;SDS011;21128;50.016;20.002;2022-08-02T04:00:57;41.53;;;24.97;;
34920;SDS011;21128;50.016;20.002;2022-08-02T04:03:24;42.67;;;24.77;;
34920;SDS011;21128;50.016;20.002;2022-08-02T04:05:51;40.08;;;25.43;;
34920;SDS011;21128;50.016;20.002;2022-08-02T04:08:19;41.40;;;25.67;;
34920;SDS011;21128;50.016;20.002;2022-08-02T04:10:46;39.10;;;24.53;;
34920;SDS011;21128;50.016;20.002;2022-08-02T04:13:33;40.10;;;25.83;;
34920;SDS011;21128;50.016;20.002;2022-08-02T04:16:07;41.93;;;25.17;;
34920;SDS011;21128;50.016;20.002;2022-08-02T04:18:55;41.27;;;25.43;;
34920;SDS011;21128;50.016;20.002;2022-08-02T04:21:27;41.80;;;26.43;;
34920;SDS011;21128;50.016;20.002;2022-08-02T04:23:59;43.50;;;26.65;;
34920;SDS011;21128;50.016;20.002;2022-08-02T04:26:35;44.37;;;27.47;;
34920;SDS011;21128;50.016;20.002;2022-08-02T04:29:03;39.77;;;26.30;;
34920;SDS011;21128;50.016;20.002;2022-08-02T04:31:32;44.43;;;26.40;;
34920;SDS011;21128;50.016;20.002;2022-08-02T04:33:59;50.57;;;27.43;;
34920;SDS011;21128;50.016;20.002;2022-08-02T04:36:26;46.83;;;27.30;;
34920;SDS011;21128;50.016;20.002;2022-08-02T04:38:54;46.75;;;26.75;;
34920;SDS011;21128;50.016;20.002;2022-08-02T04:41:20;46.50;;;28.10;;
34920;SDS011;21128;50.016;20.002;2022-08-02T04:43:47;45.53;;;26.17;;
34920;SDS011;21128;50.016;20.002;2022-08-02T04:46:14;50.67;;;29.00;;
34920;SDS011;21128;50.016;20.002;2022-08-02T04:48:48;45.70;;;25.83;;
34920;SDS011;21128;50.016;20.002;2022-08-02T04:51:28;42.30;;;26.00;;
34920;SDS011;21128;50.016;20.002;2022-08-02T04:53:54;46.47;;;26.07;;
34920;SDS011;21128;50.016;20.002;2022-08-02T04:56:21;46.85;;;25.85;;
34920;SDS011;21128;50.016;20.002;2022-08-02T04:58:48;42.90;;;25.80;;
34920;SDS011;21128;50.016;20.002;2022-08-02T05:01:15;42.13;;;24.77;;
34920;SDS011;21128;50.016;20.002;2022-08-02T05:03:42;42.93;;;26.77;;
34920;SDS011;21128;50.016;20.002;2022-08-02T05:06:08;41.43;;;25.43;;
34920;SDS011;21128;50.016;20.002;2022-08-02T05:08:35;40.80;;;26.03;;
34920;SDS011;21128;50.016;20.002;2022-08-02T05:11:02;44.27;;;25.67;;
34920;SDS011;21128;50.016;20.002;2022-08-02T05:13:29;47.27;;;26.07;;
34920;SDS011;21128;50.016;20.002;2022-08-02T05:15:55;45.40;;;25.67;;
34920;SDS011;21128;50.016;20.002;2022-08-02T05:18:31;41.20;;;25.97;;
34920;SDS011;21128;50.016;20.002;2022-08-02T05:20:57;45.77;;;26.57;;
34920;SDS011;21128;50.016;20.002;2022-08-02T05:23:24;40.92;;;24.45;;
34920;SDS011;21128;50.016;20.002;2022-08-02T05:25:51;37.70;;;24.93;;
34920;SDS011;21128;50.016;20.002;2022-08-02T05:28:18;40.77;;;26.70;;
34920;SDS011;21128;50.016;20.002;2022-08-02T05:30:52;37.70;;;25.00;;
34920;SDS011;21128;50.016;20.002;2022-08-02T05:33:19;37.97;;;26.20;;
34920;SDS011;21128;50.016;20.002;2022-08-02T05:35:45;33.80;;;22.77;;
34920;SDS011;21128;50.016;20.002;2022-08-02T05:38:12;43.27;;;25.50;;
34920;SDS011;21128;50.016;20.002;2022-08-02T05:40:39;47.73;;;24.80;;
34920;SDS011;21128;50.016;20.002;2022-08-02T05:43:12;40.27;;;24.90;;
34920;SDS011;21128;50.016;20.002;2022-08-02T05:45:40;38.67;;;24.97;;
34920;SDS011;21128;50.016;20.002;2022-08-02T05:48:07;39.43;;;25.37;;
34920;SDS011;21128;50.016;20.002;2022-08-02T05:50:58;40.43;;;24.17;;
34920;SDS011;21128;50.016;20.002;2022-08-02T05:53:40;42.03;;;24.00;;
34920;SDS011;21128;50.016;20.002;2022-08-02T05:59:04;36.13;;;22.70;;
34920;SDS011;21128;50.016;20.002;2022-08-02T06:01:45;36.17;;;22.67;;
34920;SDS011;21128;50.016;20.002;2022-08-02T06:04:27;38.43;;;23.33;;
34920;SDS011;21128;50.016;20.002;2022-08-02T06:07:09;35.50;;;22.97;;
34920;SDS011;21128;50.016;20.002;2022-08-02T06:09:37;33.37;;;23.00;;
34920;SDS011;21128;50.016;20.002;2022-08-02T06:12:05;32.83;;;23.00;;
34920;SDS011;21128;50.016;20.002;2022-08-02T06:14:37;32.67;;;22.43;;
34920;SDS011;21128;50.016;20.002;2022-08-02T06:17:13;33.77;;;21.73;;
34920;SDS011;21128;50.016;20.002;2022-08-02T06:19:40;33.37;;;22.93;;
34920;SDS011;21128;50.016;20.002;2022-08-02T06:22:08;34.90;;;21.50;;
34920;SDS011;21128;50.016;20.002;2022-08-02T06:24:43;31.93;;;21.83;;
34920;SDS011;21128;50.016;20.002;2022-08-02T06:27:14;35.13;;;23.47;;
34920;SDS011;21128;50.016;20.002;2022-08-02T06:29:41;35.07;;;24.13;;
34920;SDS011;21128;50.016;20.002;2022-08-02T06:32:16;35.23;;;24.03;;
34920;SDS011;21128;50.016;20.002;2022-08-02T06:34:44;32.67;;;22.23;;
34920;SDS011;21128;50.016;20.002;2022-08-02T06:37:20;33.53;;;21.50;;
34920;SDS011;21128;50.016;20.002;2022-08-02T06:40:05;37.00;;;23.37;;
34920;SDS011;21128;50.016;20.002;2022-08-02T06:42:43;30.73;;;21.03;;
34920;SDS011;21128;50.016;20.002;2022-08-02T06:45:17;27.23;;;19.93;;
34920;SDS011;21128;50.016;20.002;2022-08-02T06:47:44;30.30;;;20.23;;
34920;SDS011;21128;50.016;20.002;2022-08-02T06:50:31;28.87;;;19.67;;
34920;SDS011;21128;50.016;20.002;2022-08-02T06:53:05;29.10;;;19.50;;
34920;SDS011;21128;50.016;20.002;2022-08-02T06:55:32;30.57;;;20.20;;
34920;SDS011;21128;50.016;20.002;2022-08-02T06:57:59;27.53;;;19.30;;
34920;SDS011;21128;50.016;20.002;2022-08-02T07:00:26;28.00;;;18.87;;
34920;SDS011;21128;50.016;20.002;2022-08-02T07:02:53;25.83;;;17.40;;
34920;SDS011;21128;50.016;20.002;2022-08-02T07:05:20;23.30;;;18.32;;
34920;SDS011;21128;50.016;20.002;2022-08-02T07:07:47;23.00;;;17.53;;
34920;SDS011;21128;50.016;20.002;2022-08-02T07:10:14;22.57;;;16.27;;
34920;SDS011;21128;50.016;20.002;2022-08-02T07:12:41;25.37;;;15.87;;
34920;SDS011;21128;50.016;20.002;2022-08-02T07:15:08;21.20;;;14.70;;
34920;SDS011;21128;50.016;20.002;2022-08-02T07:17:37;21.70;;;16.17;;
34920;SDS011;21128;50.016;20.002;2022-08-02T07:20:05;24.90;;;16.23;;
34920;SDS011;21128;50.016;20.002;2022-08-02T07:22:32;19.73;;;14.60;;
34920;SDS011;21128;50.016;20.002;2022-08-02T07:24:59;18.27;;;15.40;;
34920;SDS011;21128;50.016;20.002;2022-08-02T07:27:27;21.85;;;15.15;;
34920;SDS011;21128;50.016;20.002;2022-08-02T07:29:54;16.60;;;13.33;;
34920;SDS011;21128;50.016;20.002;2022-08-02T07:32:29;19.23;;;14.53;;
34920;SDS011;21128;50.016;20.002;2022-08-02T07:34:58;17.43;;;14.30;;
34920;SDS011;21128;50.016;20.002;2022-08-02T07:37:27;21.63;;;14.43;;
34920;SDS011;21128;50.016;20.002;2022-08-02T07:39:56;21.07;;;15.23;;
34920;SDS011;21128;50.016;20.002;2022-08-02T07:42:23;21.57;;;14.57;;
34920;SDS011;21128;50.016;20.002;2022-08-02T07:44:51;18.45;;;15.08;;
34920;SDS011;21128;50.016;20.002;2022-08-02T07:47:24;19.67;;;14.63;;
34920;SDS011;21128;50.016;20.002;2022-08-02T07:49:51;21.33;;;14.28;;
34920;SDS011;21128;50.016;20.002;2022-08-02T07:52:31;16.60;;;14.15;;
34920;SDS011;21128;50.016;20.002;2022-08-02T07:54:57;20.87;;;15.17;;
34920;SDS011;21128;50.016;20.002;2022-08-02T07:57:24;15.97;;;13.80;;
34920;SDS011;21128;50.016;20.002;2022-08-02T07:59:51;18.33;;;14.27;;
34920;SDS011;21128;50.016;20.002;2022-08-02T08:02:18;18.87;;;14.63;;
34920;SDS011;21128;50.016;20.002;2022-08-02T08:04:45;17.67;;;14.93;;
34920;SDS011;21128;50.016;20.002;2022-08-02T08:07:12;15.70;;;13.87;;
34920;SDS011;21128;50.016;20.002;2022-08-02T08:09:38;15.07;;;13.27;;
34920;SDS011;21128;50.016;20.002;2022-08-02T08:12:07;14.63;;;12.80;;
34920;SDS011;21128;50.016;20.002;2022-08-02T08:14:35;15.10;;;13.17;;
34920;SDS011;21128;50.016;20.002;2022-08-02T08:17:02;15.33;;;11.60;;
34920;SDS011;21128;50.016;20.002;2022-08-02T08:19:29;13.57;;;11.07;;
34920;SDS011;21128;50.016;20.002;2022-08-02T08:21:56;16.83;;;12.90;;
34920;SDS011;21128;50.016;20.002;2022-08-02T08:24:27;20.07;;;12.53;;
34920;SDS011;21128;50.016;20.002;2022-08-02T08:26:54;13.20;;;11.83;;
34920;SDS011;21128;50.016;20.002;2022-08-02T08:29:22;14.20;;;11.53;;
34920;SDS011;21128;50.016;20.002;2022-08-02T08:31:49;19.80;;;11.43;;
34920;SDS011;21128;50.016;20.002;2022-08-02T08:34:16;13.63;;;12.10;;
34920;SDS011;21128;50.016;20.002;2022-08-02T08:36:57;15.93;;;12.03;;
34920;SDS011;21128;50.016;20.002;2022-08-02T08:39:23;14.75;;;11.20;;
34920;SDS011;21128;50.016;20.002;2022-08-02T08:41:50;14.33;;;11.07;;
34920;SDS011;21128;50.016;20.002;2022-08-02T08:44:17;14.78;;;10.53;;
34920;SDS011;21128;50.016;20.002;2022-08-02T08:46:44;15.30;;;10.50;;
34920;SDS011;21128;50.016;20.002;2022-08-02T08:49:20;14.00;;;9.65;;
34920;SDS011;21128;50.016;20.002;2022-08-02T08:52:03;12.90;;;10.20;;
34920;SDS011;21128;50.016;20.002;2022-08-02T08:54:32;14.63;;;11.33;;
34920;SDS011;21128;50.016;20.002;2022-08-02T08:57:03;13.30;;;10.60;;
34920;SDS011;21128;50.016;20.002;2022-08-02T08:59:30;16.07;;;11.77;;
34920;SDS011;21128;50.016;20.002;2022-08-02T09:01:57;12.40;;;10.32;;
34920;SDS011;21128;50.016;20.002;2022-08-02T09:04:25;14.03;;;9.97;;
34920;SDS011;21128;50.016;20.002;2022-08-02T09:06:52;11.50;;;10.30;;
34920;SDS011;21128;50.016;20.002;2022-08-02T09:09:20;13.20;;;9.00;;
34920;SDS011;21128;50.016;20.002;2022-08-02T09:11:47;10.80;;;8.90;;
34920;SDS011;21128;50.016;20.002;2022-08-02T09:14:24;13.98;;;8.93;;
34920;SDS011;21128;50.016;20.002;2022-08-02T09:17:04;10.50;;;9.23;;
34920;SDS011;21128;50.016;20.002;2022-08-02T09:19:35;11.00;;;8.73;;
34920;SDS011;21128;50.016;20.002;2022-08-02T09:22:06;13.60;;;8.57;;
34920;SDS011;21128;50.016;20.002;2022-08-02T09:24:47;9.70;;;7.85;;
34920;SDS011;21128;50.016;20.002;2022-08-02T09:27:18;9.53;;;6.90;;
34920;SDS011;21128;50.016;20.002;2022-08-02T09:29:49;6.78;;;5.72;;
34920;SDS011;21128;50.016;20.002;2022-08-02T09:32:18;8.20;;;6.13;;
34920;SDS011;21128;50.016;20.002;2022-08-02T09:37:23;7.77;;;6.23;;
34920;SDS011;21128;50.016;20.002;2022-08-02T09:39:52;8.50;;;5.87;;
34920;SDS011;21128;50.016;20.002;2022-08-02T09:42:20;6.57;;;5.97;;
34920;SDS011;21128;50.016;20.002;2022-08-02T09:44:59;8.68;;;5.33;;
34920;SDS011;21128;50.016;20.002;2022-08-02T09:47:28;6.47;;;5.43;;
34920;SDS011;21128;50.016;20.002;2022-08-02T09:49:56;7.53;;;5.17;;
34920;SDS011;21128;50.016;20.002;2022-08-02T09:52:30;6.70;;;5.10;;
34920;SDS011;21128;50.016;20.002;2022-08-02T09:55:04;5.93;;;5.40;;
34920;SDS011;21128;50.016;20.002;2022-08-02T09:57:31;9.50;;;4.77;;
34920;SDS011;21128;50.016;20.002;2022-08-02T10:00:10;6.05;;;4.60;;
34920;SDS011;21128;50.016;20.002;2022-08-02T10:02:37;5.20;;;4.40;;
34920;SDS011;21128;50.016;20.002;2022-08-02T10:05:04;8.30;;;4.43;;
34920;SDS011;21128;50.016;20.002;2022-08-02T10:07:32;8.40;;;5.27;;
34920;SDS011;21128;50.016;20.002;2022-08-02T10:09:59;7.87;;;4.83;;
34920;SDS011;21128;50.016;20.002;2022-08-02T10:12:27;9.40;;;4.93;;
34920;SDS011;21128;50.016;20.002;2022-08-02T10:14:53;8.70;;;5.10;;
34920;SDS011;21128;50.016;20.002;2022-08-02T10:17:20;7.47;;;5.10;;
34920;SDS011;21128;50.016;20.002;2022-08-02T10:19:47;7.23;;;5.67;;
34920;SDS011;21128;50.016;20.002;2022-08-02T10:22:14;10.33;;;5.40;;
34920;SDS011;21128;50.016;20.002;2022-08-02T10:24:42;7.57;;;5.47;;
34920;SDS011;21128;50.016;20.002;2022-08-02T10:27:13;7.63;;;6.70;;
34920;SDS011;21128;50.016;20.002;2022-08-02T10:29:42;8.17;;;6.13;;
34920;SDS011;21128;50.016;20.002;2022-08-02T10:32:13;8.57;;;6.03;;
34920;SDS011;21128;50.016;20.002;2022-08-02T10:34:57;9.07;;;6.57;;
34920;SDS011;21128;50.016;20.002;2022-08-02T10:37:28;9.97;;;6.33;;
34920;SDS011;21128;50.016;20.002;2022-08-02T10:39:58;8.90;;;7.53;;
34920;SDS011;21128;50.016;20.002;2022-08-02T10:45:08;8.50;;;7.50;;
34920;SDS011;21128;50.016;20.002;2022-08-02T10:56:05;10.03;;;7.63;;
34920;SDS011;21128;50.016;20.002;2022-08-02T10:58:33;10.80;;;8.00;;
34920;SDS011;21128;50.016;20.002;2022-08-02T11:01:43;9.07;;;7.90;;
34920;SDS011;21128;50.016;20.002;2022-08-02T11:04:01;11.03;;;6.87;;
34920;SDS011;21128;50.016;20.002;2022-08-02T11:06:28;6.78;;;6.00;;
34920;SDS011;21128;50.016;20.002;2022-08-02T11:14:28;9.23;;;6.47;;
34920;SDS011;21128;50.016;20.002;2022-08-02T11:19:23;12.57;;;7.50;;
34920;SDS011;21128;50.016;20.002;2022-08-02T11:22:00;9.90;;;6.80;;
34920;SDS011;21128;50.016;20.002;2022-08-02T11:26:57;10.47;;;7.70;;
34920;SDS011;21128;50.016;20.002;2022-08-02T11:29:37;7.13;;;6.10;;
34920;SDS011;21128;50.016;20.002;2022-08-02T11:32:15;9.70;;;7.40;;
34920;SDS011;21128;50.016;20.002;2022-08-02T11:34:45;13.30;;;8.10;;
34920;SDS011;21128;50.016;20.002;2022-08-02T11:37:27;14.00;;;9.23;;
34920;SDS011;21128;50.016;20.002;2022-08-02T11:40:02;11.40;;;9.83;;
34920;SDS011;21128;50.016;20.002;2022-08-02T11:42:35;16.10;;;10.60;;
34920;SDS011;21128;50.016;20.002;2022-08-02T11:47:31;10.77;;;9.03;;
34920;SDS011;21128;50.016;20.002;2022-08-02T11:52:39;12.50;;;10.15;;
34920;SDS011;21128;50.016;20.002;2022-08-02T11:55:13;14.87;;;9.80;;
34920;SDS011;21128;50.016;20.002;2022-08-02T11:57:40;12.27;;;9.40;;
34920;SDS011;21128;50.016;20.002;2022-08-02T12:00:14;12.10;;;8.50;;
34920;SDS011;21128;50.016;20.002;2022-08-02T12:02:45;11.53;;;7.57;;
34920;SDS011;21128;50.016;20.002;2022-08-02T12:05:18;10.85;;;7.70;;
34920;SDS011;21128;50.016;20.002;2022-08-02T12:07:47;11.23;;;7.90;;
34920;SDS011;21128;50.016;20.002;2022-08-02T12:10:20;10.47;;;7.43;;
34920;SDS011;21128;50.016;20.002;2022-08-02T12:12:50;8.90;;;7.40;;
34920;SDS011;21128;50.016;20.002;2022-08-02T12:15:43;7.90;;;7.10;;
34920;SDS011;21128;50.016;20.002;2022-08-02T12:18:16;11.57;;;7.23;;
34920;SDS011;21128;50.016;20.002;2022-08-02T12:21:19;9.43;;;7.73;;
34920;SDS011;21128;50.016;20.002;2022-08-02T12:23:47;12.20;;;9.27;;
34920;SDS011;21128;50.016;20.002;2022-08-02T12:26:14;11.45;;;9.45;;
34920;SDS011;21128;50.016;20.002;2022-08-02T12:28:41;11.57;;;10.27;;
34920;SDS011;21128;50.016;20.002;2022-08-02T12:31:09;14.60;;;11.73;;
34920;SDS011;21128;50.016;20.002;2022-08-02T12:38:51;14.03;;;12.37;;
34920;SDS011;21128;50.016;20.002;2022-08-02T12:41:22;14.50;;;10.77;;
34920;SDS011;21128;50.016;20.002;2022-08-02T12:43:51;12.00;;;9.73;;
34920;SDS011;21128;50.016;20.002;2022-08-02T12:46:19;10.27;;;8.30;;
34920;SDS011;21128;50.016;20.002;2022-08-02T12:49:13;13.40;;;8.87;;
34920;SDS011;21128;50.016;20.002;2022-08-02T12:51:54;9.43;;;7.10;;
34920;SDS011;21128;50.016;20.002;2022-08-02T12:54:22;7.40;;;6.70;;
34920;SDS011;21128;50.016;20.002;2022-08-02T12:56:57;10.50;;;8.03;;
34920;SDS011;21128;50.016;20.002;2022-08-02T12:59:40;10.33;;;7.70;;
34920;SDS011;21128;50.016;20.002;2022-08-02T13:02:16;9.40;;;7.93;;
34920;SDS011;21128;50.016;20.002;2022-08-02T13:04:43;9.57;;;8.10;;
34920;SDS011;21128;50.016;20.002;2022-08-02T13:07:11;9.00;;;8.10;;
34920;SDS011;21128;50.016;20.002;2022-08-02T13:09:39;10.90;;;8.07;;
34920;SDS011;21128;50.016;20.002;2022-08-02T13:12:08;10.57;;;8.60;;
34920;SDS011;21128;50.016;20.002;2022-08-02T13:14:35;10.80;;;8.50;;
34920;SDS011;21128;50.016;20.002;2022-08-02T13:17:02;9.73;;;8.53;;
34920;SDS011;21128;50.016;20.002;2022-08-02T13:19:29;11.80;;;8.57;;
34920;SDS011;21128;50.016;20.002;2022-08-02T13:21:56;12.27;;;9.33;;
34920;SDS011;21128;50.016;20.002;2022-08-02T13:24:22;9.47;;;8.53;;
34920;SDS011;21128;50.016;20.002;2022-08-02T13:26:49;12.07;;;8.93;;
34920;SDS011;21128;50.016;20.002;2022-08-02T13:29:16;9.63;;;7.93;;
34920;SDS011;21128;50.016;20.002;2022-08-02T13:31:43;10.33;;;7.53;;
34920;SDS011;21128;50.016;20.002;2022-08-02T13:34:10;8.67;;;7.30;;
34920;SDS011;21128;50.016;20.002;2022-08-02T13:36:37;7.70;;;7.00;;
34920;SDS011;21128;50.016;20.002;2022-08-02T13:39:04;7.83;;;7.03;;
34920;SDS011;21128;50.016;20.002;2022-08-02T13:41:31;7.17;;;5.93;;
34920;SDS011;21128;50.016;20.002;2022-08-02T13:44:04;8.87;;;6.03;;
34920;SDS011;21128;50.016;20.002;2022-08-02T13:46:31;6.60;;;5.90;;
34920;SDS011;21128;50.016;20.002;2022-08-02T13:48:57;6.60;;;5.90;;
34920;SDS011;21128;50.016;20.002;2022-08-02T13:51:44;7.03;;;6.37;;
34920;SDS011;21128;50.016;20.002;2022-08-02T13:54:10;8.90;;;6.73;;
34920;SDS011;21128;50.016;20.002;2022-08-02T13:56:37;8.93;;;6.20;;
34920;SDS011;21128;50.016;20.002;2022-08-02T13:59:11;7.92;;;7.08;;
34920;SDS011;21128;50.016;20.002;2022-08-02T14:01:38;11.20;;;6.90;;
34920;SDS011;21128;50.016;20.002;2022-08-02T14:04:11;8.83;;;6.33;;
34920;SDS011;21128;50.016;20.002;2022-08-02T14:06:38;6.03;;;5.30;;
34920;SDS011;21128;50.016;20.002;2022-08-02T14:09:04;5.17;;;4.67;;
34920;SDS011;21128;50.016;20.002;2022-08-02T14:11:31;4.97;;;4.17;;
34920;SDS011;21128;50.016;20.002;2022-08-02T14:13:58;8.15;;;3.75;;
34920;SDS011;21128;50.016;20.002;2022-08-02T14:16:25;5.70;;;4.00;;
34920;SDS011;21128;50.016;20.002;2022-08-02T14:18:52;5.47;;;3.72;;
34920;SDS011;21128;50.016;20.002;2022-08-02T14:21:18;7.60;;;3.35;;
34920;SDS011;21128;50.016;20.002;2022-08-02T14:23:45;4.67;;;3.53;;
34920;SDS011;21128;50.016;20.002;2022-08-02T14:26:12;5.20;;;2.60;;
34920;SDS011;21128;50.016;20.002;2022-08-02T14:28:39;3.37;;;2.40;;
34920;SDS011;21128;50.016;20.002;2022-08-02T14:31:05;5.43;;;2.80;;
34920;SDS011;21128;50.016;20.002;2022-08-02T14:33:32;3.55;;;2.12;;
34920;SDS011;21128;50.016;20.002;2022-08-02T14:35:59;2.43;;;2.13;;
34920;SDS011;21128;50.016;20.002;2022-08-02T14:38:32;2.60;;;2.40;;
34920;SDS011;21128;50.016;20.002;2022-08-02T14:41:00;5.37;;;2.40;;
34920;SDS011;21128;50.016;20.002;2022-08-02T14:43:34;5.37;;;2.52;;
34920;SDS011;21128;50.016;20.002;2022-08-02T14:46:19;5.95;;;2.65;;
34920;SDS011;21128;50.016;20.002;2022-08-02T14:48:46;7.73;;;2.80;;
34920;SDS011;21128;50.016;20.002;2022-08-02T14:51:36;3.00;;;2.67;;
34920;SDS011;21128;50.016;20.002;2022-08-02T14:54:04;3.00;;;2.67;;
34920;SDS011;21128;50.016;20.002;2022-08-02T14:56:32;4.50;;;2.93;;
34920;SDS011;21128;50.016;20.002;2022-08-02T14:58:59;4.77;;;2.77;;
34920;SDS011;21128;50.016;20.002;2022-08-02T15:01:26;5.30;;;3.43;;
34920;SDS011;21128;50.016;20.002;2022-08-02T15:03:53;5.07;;;3.03;;
34920;SDS011;21128;50.016;20.002;2022-08-02T15:06:20;5.90;;;3.00;;
34920;SDS011;21128;50.016;20.002;2022-08-02T15:08:47;7.77;;;2.83;;
34920;SDS011;21128;50.016;20.002;2022-08-02T15:11:15;5.17;;;3.17;;
34920;SDS011;21128;50.016;20.002;2022-08-02T15:13:42;5.83;;;3.33;;
34920;SDS011;21128;50.016;20.002;2022-08-02T15:16:08;5.10;;;3.40;;
34920;SDS011;21128;50.016;20.002;2022-08-02T15:18:36;3.90;;;3.43;;
34920;SDS011;21128;50.016;20.002;2022-08-02T15:21:03;5.60;;;3.25;;
34920;SDS011;21128;50.016;20.002;2022-08-02T15:23:29;6.47;;;3.27;;